Time;durP1;ratioP1;P1;durP2;ratioP2;P2;SDS_P1;SDS_P2;PMS_P1;PMS_P2;Temp;Humidity;BMP_temperature;BMP_pressure;BME280_temperature;BME280_humidity;BME280_pressure;Samples;Min_cycle;Max_cycle;Signal;HPM_P1;HPM_P2
2024/04/23 00:00:32;;;;;;;1.40;1.30;;;;;;;;;;6701644;26;20040;-74
2024/04/23 00:03:33;;;;;;;0.77;0.77;;;;;;;;;;6683799;26;20481;-75
2024/04/23 00:06:33;;;;;;;1.50;1.10;;;;;;;;;;6698349;26;20445;-75
2024/04/23 00:09:33;;;;;;;1.73;1.40;;;;;;;;;;6691762;26;20461;-74
2024/04/23 00:12:33;;;;;;;1.47;1.30;;;;;;;;;;6687703;26;20036;-75
2024/04/23 00:15:34;;;;;;;1.27;1.17;;;;;;;;;;6700605;26;20073;-74
2024/04/23 00:18:34;;;;;;;1.50;1.23;;;;;;;;;;6702122;26;20010;-74
2024/04/23 00:21:34;;;;;;;1.53;1.20;;;;;;;;;;6685318;26;20000;-74
2024/04/23 00:24:34;;;;;;;1.10;1.00;;;;;;;;;;6695094;26;20011;-75
2024/04/23 00:27:35;;;;;;;1.47;1.30;;;;;;;;;;6696526;26;20000;-75
2024/04/23 00:30:35;;;;;;;1.23;1.07;;;;;;;;;;6689425;26;20285;-75
2024/04/23 00:33:35;;;;;;;3.83;1.30;;;;;;;;;;6704351;26;20325;-75
2024/04/23 00:36:35;;;;;;;1.20;1.10;;;;;;;;;;6694469;26;20445;-75
2024/04/23 00:39:35;;;;;;;1.63;1.20;;;;;;;;;;6691243;26;20001;-75
2024/04/23 00:42:36;;;;;;;1.40;1.20;;;;;;;;;;6694417;26;20007;-75
2024/04/23 00:45:39;;;;;;;1.40;1.10;;;;;;;;;;6692080;26;20437;-74
2024/04/23 00:48:40;;;;;;;1.60;1.20;;;;;;;;;;6681846;26;20032;-74
2024/04/23 00:51:41;;;;;;;1.37;1.23;;;;;;;;;;6691437;26;20368;-75
2024/04/23 00:54:41;;;;;;;1.30;1.20;;;;;;;;;;6686552;26;20037;-75
2024/04/23 00:57:41;;;;;;;1.37;1.20;;;;;;;;;;6682667;26;20008;-75
2024/04/23 01:00:42;;;;;;;1.47;1.37;;;;;;;;;;6682088;26;20010;-77
2024/04/23 01:03:42;;;;;;;1.27;1.17;;;;;;;;;;6680276;26;20016;-77
2024/04/23 01:06:43;;;;;;;1.33;1.23;;;;;;;;;;6681871;26;20448;-77
2024/04/23 01:09:43;;;;;;;1.60;1.33;;;;;;;;;;6685028;26;20497;-77
2024/04/23 01:12:43;;;;;;;1.93;1.23;;;;;;;;;;6693349;26;20396;-77
2024/04/23 01:15:44;;;;;;;1.63;1.30;;;;;;;;;;6684780;26;20019;-76
2024/04/23 01:18:45;;;;;;;1.83;1.40;;;;;;;;;;6681654;26;20486;-77
2024/04/23 01:22:14;;;;;;;1.55;1.13;;;;;;;;;;6688797;26;20044;-77
2024/04/23 01:25:21;;;;;;;2.28;1.23;;;;;;;;;;6684626;26;20007;-77
2024/04/23 01:28:22;;;;;;;1.70;1.27;;;;;;;;;;6687004;26;20028;-76
2024/04/23 01:31:23;;;;;;;1.40;1.30;;;;;;;;;;6698139;26;20015;-76
2024/04/23 01:34:24;;;;;;;1.67;1.35;;;;;;;;;;6685828;26;20032;-76
2024/04/23 01:37:25;;;;;;;1.33;1.23;;;;;;;;;;6704091;26;20032;-77
2024/04/23 01:40:26;;;;;;;2.13;1.27;;;;;;;;;;6683320;26;20004;-76
2024/04/23 01:43:26;;;;;;;2.13;1.30;;;;;;;;;;6691746;26;19999;-77
2024/04/23 01:46:26;;;;;;;1.77;1.30;;;;;;;;;;6681470;26;20461;-77
2024/04/23 01:49:27;;;;;;;1.20;0.93;;;;;;;;;;6707590;26;20365;-77
2024/04/23 01:52:27;;;;;;;1.37;1.20;;;;;;;;;;6682087;26;20321;-77
2024/04/23 01:55:27;;;;;;;1.83;1.37;;;;;;;;;;6682400;26;20395;-76
2024/04/23 01:58:27;;;;;;;2.20;1.30;;;;;;;;;;6684439;26;20580;-76
2024/04/23 02:01:28;;;;;;;1.80;1.37;;;;;;;;;;6682650;26;20024;-76
2024/04/23 02:04:29;;;;;;;1.35;1.20;;;;;;;;;;6703184;26;20012;-77
2024/04/23 02:07:30;;;;;;;1.60;1.10;;;;;;;;;;6695341;26;20433;-77
2024/04/23 02:10:30;;;;;;;1.70;1.10;;;;;;;;;;6685332;26;20034;-75
2024/04/23 02:13:31;;;;;;;1.45;1.35;;;;;;;;;;6679826;26;20070;-75
2024/04/23 02:16:31;;;;;;;1.37;1.07;;;;;;;;;;6681995;26;20015;-74
2024/04/23 02:19:31;;;;;;;1.50;1.10;;;;;;;;;;6688621;26;20015;-74
2024/04/23 02:22:31;;;;;;;1.07;1.03;;;;;;;;;;6692081;26;20000;-74
2024/04/23 02:25:32;;;;;;;1.60;1.33;;;;;;;;;;6687009;26;20008;-74
2024/04/23 02:28:32;;;;;;;3.10;1.57;;;;;;;;;;6685983;26;20097;-75
2024/04/23 02:31:32;;;;;;;2.10;1.50;;;;;;;;;;6683221;26;20000;-75
2024/04/23 02:34:33;;;;;;;2.07;1.53;;;;;;;;;;6669254;26;20095;-75
2024/04/23 02:37:33;;;;;;;1.87;1.60;;;;;;;;;;6678830;26;20016;-75
2024/04/23 02:40:33;;;;;;;1.77;1.40;;;;;;;;;;6679139;26;20000;-74
2024/04/23 02:43:33;;;;;;;1.37;1.27;;;;;;;;;;6680596;26;19992;-75
2024/04/23 02:46:34;;;;;;;1.47;1.37;;;;;;;;;;6692992;26;20460;-75
2024/04/23 02:49:34;;;;;;;1.57;1.47;;;;;;;;;;6680440;26;20349;-75
2024/04/23 02:52:34;;;;;;;1.30;1.20;;;;;;;;;;6679524;26;20456;-75
2024/04/23 02:55:34;;;;;;;2.40;1.43;;;;;;;;;;6692389;26;20399;-74
2024/04/23 02:58:34;;;;;;;1.53;1.30;;;;;;;;;;6679418;26;20487;-75
2024/04/23 03:01:35;;;;;;;1.67;1.30;;;;;;;;;;6696946;26;20510;-75
2024/04/23 03:04:35;;;;;;;2.03;1.37;;;;;;;;;;6681656;26;20493;-75
2024/04/23 03:07:35;;;;;;;2.00;1.40;;;;;;;;;;6685598;26;19992;-75
2024/04/23 03:10:36;;;;;;;1.50;1.30;;;;;;;;;;6684362;26;20065;-75
2024/04/23 03:13:36;;;;;;;1.73;1.40;;;;;;;;;;6679233;26;20406;-74
2024/04/23 03:16:36;;;;;;;1.57;1.47;;;;;;;;;;6681578;26;22305;-73
2024/04/23 03:19:36;;;;;;;1.40;1.30;;;;;;;;;;6677074;26;20010;-74
2024/04/23 03:22:37;;;;;;;1.63;1.20;;;;;;;;;;6684215;26;20477;-73
2024/04/23 03:25:37;;;;;;;2.20;1.60;;;;;;;;;;6683335;26;19997;-74
2024/04/23 03:28:37;;;;;;;1.40;1.10;;;;;;;;;;6677166;26;20323;-74
2024/04/23 03:31:37;;;;;;;2.97;1.50;;;;;;;;;;6677015;26;20443;-74
2024/04/23 03:34:37;;;;;;;1.67;1.47;;;;;;;;;;6679294;26;19996;-74
2024/04/23 03:37:38;;;;;;;1.83;1.57;;;;;;;;;;6682607;26;20036;-74
2024/04/23 03:40:38;;;;;;;1.50;1.40;;;;;;;;;;6668840;26;19999;-74
2024/04/23 03:43:38;;;;;;;2.77;1.43;;;;;;;;;;6685524;26;20060;-74
2024/04/23 03:46:38;;;;;;;1.37;1.27;;;;;;;;;;6674757;26;20563;-74
2024/04/23 03:49:39;;;;;;;2.53;1.60;;;;;;;;;;6681050;26;20011;-74
2024/04/23 03:52:39;;;;;;;2.17;1.43;;;;;;;;;;6688490;26;20004;-74
2024/04/23 03:55:39;;;;;;;1.87;1.50;;;;;;;;;;6681601;26;19992;-74
2024/04/23 03:58:40;;;;;;;2.27;1.53;;;;;;;;;;6679151;26;20126;-74
2024/04/23 04:01:40;;;;;;;1.97;1.57;;;;;;;;;;6682410;26;20461;-74
2024/04/23 04:07:59;;;;;;;2.20;1.63;;;;;;;;;;6683411;26;20000;-74
2024/04/23 04:11:00;;;;;;;2.00;1.80;;;;;;;;;;6687309;26;20006;-75
2024/04/23 04:14:01;;;;;;;2.30;1.73;;;;;;;;;;6680343;26;20326;-75
2024/04/23 04:17:01;;;;;;;2.35;1.80;;;;;;;;;;6684268;26;20077;-74
2024/04/23 04:20:01;;;;;;;2.37;1.67;;;;;;;;;;6698796;26;20002;-75
2024/04/23 04:23:02;;;;;;;2.27;1.57;;;;;;;;;;6681629;26;20437;-75
2024/04/23 04:26:02;;;;;;;2.00;1.60;;;;;;;;;;6702474;26;20010;-75
2024/04/23 04:29:02;;;;;;;2.37;1.83;;;;;;;;;;6680851;26;19996;-75
2024/04/23 04:32:07;;;;;;;2.57;1.97;;;;;;;;;;6684803;26;20031;-75
2024/04/23 04:35:07;;;;;;;2.47;2.10;;;;;;;;;;6687574;26;20073;-75
2024/04/23 04:38:07;;;;;;;2.47;2.13;;;;;;;;;;6681517;26;20685;-75
2024/04/23 04:41:07;;;;;;;1.90;1.70;;;;;;;;;;6680471;26;20473;-75
2024/04/23 04:44:08;;;;;;;3.80;1.80;;;;;;;;;;6691759;26;20004;-75
2024/04/23 04:47:08;;;;;;;2.00;1.77;;;;;;;;;;6683697;26;20022;-75
2024/04/23 04:50:08;;;;;;;2.10;1.80;;;;;;;;;;6693278;26;20016;-75
2024/04/23 04:53:08;;;;;;;1.67;1.57;;;;;;;;;;6693478;26;20003;-75
2024/04/23 04:56:08;;;;;;;2.10;1.80;;;;;;;;;;6683223;26;20047;-75
2024/04/23 04:59:09;;;;;;;2.23;1.77;;;;;;;;;;6679409;26;20004;-75
2024/04/23 05:02:09;;;;;;;2.20;2.00;;;;;;;;;;6681192;26;20371;-75
2024/04/23 05:05:09;;;;;;;1.77;1.63;;;;;;;;;;6680544;26;20388;-75
2024/04/23 05:08:10;;;;;;;1.77;1.67;;;;;;;;;;6682220;26;20003;-76
2024/04/23 05:11:10;;;;;;;2.00;1.80;;;;;;;;;;6690885;26;20020;-75
2024/04/23 05:14:10;;;;;;;2.30;2.07;;;;;;;;;;6683192;26;20008;-75
2024/04/23 05:17:10;;;;;;;2.07;1.87;;;;;;;;;;6692192;26;19992;-75
2024/04/23 05:20:11;;;;;;;2.40;1.77;;;;;;;;;;6681078;26;20499;-75
2024/04/23 05:23:11;;;;;;;2.83;1.87;;;;;;;;;;6689897;26;20468;-75
2024/04/23 05:26:11;;;;;;;2.20;1.97;;;;;;;;;;6689172;26;20443;-75
2024/04/23 05:29:12;;;;;;;2.20;1.73;;;;;;;;;;6683723;26;20008;-75
2024/04/23 05:35:31;;;;;;;2.35;2.08;;;;;;;;;;6697972;26;20000;-75
2024/04/23 05:38:31;;;;;;;2.73;2.07;;;;;;;;;;6679979;26;20468;-75
2024/04/23 05:41:31;;;;;;;3.00;2.17;;;;;;;;;;6687146;26;20014;-75
2024/04/23 05:44:32;;;;;;;2.47;2.00;;;;;;;;;;6686094;26;20158;-74
2024/04/23 05:47:51;;;;;;;2.70;1.90;;;;;;;;;;6687605;26;20072;-74
2024/04/23 05:51:10;;;;;;;2.92;2.33;;;;;;;;;;6680536;26;20404;-74
2024/04/23 05:54:29;;;;;;;2.22;2.03;;;;;;;;;;6680474;26;20008;-79
2024/04/23 05:57:29;;;;;;;2.60;2.10;;;;;;;;;;6680863;26;20068;-74
2024/04/23 06:00:29;;;;;;;4.10;2.67;;;;;;;;;;6682455;26;20004;-74
2024/04/23 06:03:30;;;;;;;2.37;2.10;;;;;;;;;;6679834;26;20011;-75
2024/04/23 06:06:30;;;;;;;3.00;2.53;;;;;;;;;;6680605;26;20007;-77
2024/04/23 06:09:31;;;;;;;2.80;2.47;;;;;;;;;;6678986;26;20000;-74
2024/04/23 06:12:31;;;;;;;;;;;;;;;;;;6689836;26;20485;-75
2024/04/23 06:15:32;;;;;;;2.45;1.95;;;;;;;;;;6680856;26;19932;-74
2024/04/23 06:18:32;;;;;;;2.80;2.30;;;;;;;;;;6691634;26;19997;-74
2024/04/23 06:21:32;;;;;;;3.20;2.40;;;;;;;;;;6677651;26;20003;-74
2024/04/23 06:24:32;;;;;;;2.57;2.27;;;;;;;;;;6684111;26;20020;-74
2024/04/23 06:27:33;;;;;;;3.27;2.60;;;;;;;;;;6678362;26;20004;-74
2024/04/23 06:30:33;;;;;;;3.35;2.53;;;;;;;;;;6695152;26;20000;-74
2024/04/23 06:33:34;;;;;;;4.27;2.57;;;;;;;;;;6683598;26;20417;-74
2024/04/23 06:36:34;;;;;;;2.30;2.10;;;;;;;;;;6711939;26;20015;-73
2024/04/23 06:39:34;;;;;;;3.43;2.60;;;;;;;;;;6676586;26;20018;-74
2024/04/23 06:42:35;;;;;;;2.47;2.17;;;;;;;;;;6686452;26;19992;-75
2024/04/23 06:45:35;;;;;;;3.03;2.50;;;;;;;;;;6679856;26;20014;-74
2024/04/23 06:48:36;;;;;;;3.50;2.83;;;;;;;;;;6678809;26;20032;-74
2024/04/23 06:51:36;;;;;;;3.47;2.60;;;;;;;;;;6685694;26;20007;-77
2024/04/23 06:54:36;;;;;;;3.10;2.73;;;;;;;;;;6659966;26;20032;-77
2024/04/23 06:57:38;;;;;;;2.50;2.17;;;;;;;;;;6684658;26;20473;-75
2024/04/23 07:00:38;;;;;;;;;;;;;;;;;;6683818;26;20094;-75
2024/04/23 07:03:39;;;;;;;2.85;2.17;;;;;;;;;;6690217;26;19945;-76
2024/04/23 07:06:39;;;;;;;3.08;2.55;;;;;;;;;;6682375;26;20444;-76
2024/04/23 07:09:40;;;;;;;3.00;2.50;;;;;;;;;;6692827;26;19988;-75
2024/04/23 07:12:40;;;;;;;2.87;2.53;;;;;;;;;;6684172;26;20028;-76
2024/04/23 07:15:40;;;;;;;3.13;2.83;;;;;;;;;;6705608;26;20323;-76
2024/04/23 07:18:41;;;;;;;2.70;2.33;;;;;;;;;;6649059;26;20000;-76
2024/04/23 07:21:41;;;;;;;3.70;2.73;;;;;;;;;;6684727;26;20014;-76
2024/04/23 07:24:42;;;;;;;3.27;2.63;;;;;;;;;;6680515;26;20028;-76
2024/04/23 07:27:42;;;;;;;3.38;2.72;;;;;;;;;;6684781;26;19996;-76
2024/04/23 07:30:43;;;;;;;2.97;2.53;;;;;;;;;;6677669;26;20732;-76
2024/04/23 07:33:43;;;;;;;3.03;2.70;;;;;;;;;;6685962;26;20156;-76
2024/04/23 07:36:43;;;;;;;3.23;2.83;;;;;;;;;;6704935;26;20525;-75
2024/04/23 07:39:44;;;;;;;2.97;2.70;;;;;;;;;;6690408;26;20032;-76
2024/04/23 07:42:44;;;;;;;3.50;2.57;;;;;;;;;;6687653;26;20019;-76
2024/04/23 07:45:44;;;;;;;2.97;2.73;;;;;;;;;;6694148;26;19996;-76
2024/04/23 07:48:44;;;;;;;4.60;2.77;;;;;;;;;;6692719;26;20518;-76
2024/04/23 07:51:45;;;;;;;3.07;2.77;;;;;;;;;;6685098;26;20370;-76
2024/04/23 07:54:50;;;;;;;3.43;3.07;;;;;;;;;;6685629;26;20004;-76
2024/04/23 07:57:51;;;;;;;3.05;2.75;;;;;;;;;;6683894;26;20091;-77
2024/04/23 08:00:51;;;;;;;3.40;2.97;;;;;;;;;;6687149;26;20015;-77
2024/04/23 08:03:51;;;;;;;3.73;3.27;;;;;;;;;;6694025;26;20077;-76
2024/04/23 08:06:51;;;;;;;3.50;2.97;;;;;;;;;;6676487;26;20004;-75
2024/04/23 08:09:52;;;;;;;3.13;2.83;;;;;;;;;;6685348;26;20782;-75
2024/04/23 08:12:53;;;;;;;4.60;3.10;;;;;;;;;;6682783;26;20042;-76
2024/04/23 08:16:00;;;;;;;3.72;3.03;;;;;;;;;;6679209;26;20001;-76
2024/04/23 08:19:00;;;;;;;4.18;2.78;;;;;;;;;;6688502;26;19991;-76
2024/04/23 08:22:00;;;;;;;3.53;3.03;;;;;;;;;;6678876;26;20081;-76
2024/04/23 08:25:01;;;;;;;3.07;2.77;;;;;;;;;;6683563;26;20425;-75
2024/04/23 08:28:01;;;;;;;3.10;2.80;;;;;;;;;;6687874;26;20607;-76
2024/04/23 08:31:02;;;;;;;3.00;2.70;;;;;;;;;;6698053;26;20023;-76
2024/04/23 08:34:02;;;;;;;3.58;3.08;;;;;;;;;;6688694;26;19997;-76
2024/04/23 08:37:06;;;;;;;3.43;3.13;;;;;;;;;;6684795;26;20007;-76
2024/04/23 08:40:08;;;;;;;4.68;2.97;;;;;;;;;;6692901;26;20000;-76
2024/04/23 08:43:11;;;;;;;4.55;2.90;;;;;;;;;;6694495;26;20011;-76
2024/04/23 08:46:12;;;;;;;3.65;3.13;;;;;;;;;;6697174;26;20463;-76
2024/04/23 08:49:12;;;;;;;3.53;3.00;;;;;;;;;;6691690;26;20004;-76
2024/04/23 08:52:13;;;;;;;4.75;3.05;;;;;;;;;;6688100;26;20400;-76
2024/04/23 08:55:13;;;;;;;4.00;2.93;;;;;;;;;;6693066;26;20448;-76
2024/04/23 08:58:14;;;;;;;3.73;3.03;;;;;;;;;;6681914;26;19992;-76
2024/04/23 09:01:20;;;;;;;4.90;3.23;;;;;;;;;;6701749;26;20000;-76
2024/04/23 09:04:21;;;;;;;3.75;3.13;;;;;;;;;;6684440;26;20222;-76
2024/04/23 09:07:22;;;;;;;3.40;3.07;;;;;;;;;;6680612;26;20081;-76
2024/04/23 09:10:22;;;;;;;5.28;3.35;;;;;;;;;;6688906;26;20428;-76
2024/04/23 09:13:22;;;;;;;4.00;3.23;;;;;;;;;;6681464;26;20032;-76
2024/04/23 09:16:23;;;;;;;4.80;3.83;;;;;;;;;;6683843;26;20003;-76
2024/04/23 09:19:24;;;;;;;3.87;3.47;;;;;;;;;;6655418;26;20409;-75
2024/04/23 09:22:24;;;;;;;4.43;3.85;;;;;;;;;;6683345;26;20004;-76
2024/04/23 09:25:25;;;;;;;5.10;3.97;;;;;;;;;;6681875;26;20468;-76
2024/04/23 09:28:25;;;;;;;5.13;4.13;;;;;;;;;;6685361;26;20007;-76
2024/04/23 09:31:25;;;;;;;4.80;4.10;;;;;;;;;;6679287;26;20033;-76
2024/04/23 09:34:26;;;;;;;4.50;4.10;;;;;;;;;;6699070;26;20073;-76
2024/04/23 09:37:26;;;;;;;5.63;3.73;;;;;;;;;;6671069;26;20052;-76
2024/04/23 09:40:27;;;;;;;4.67;4.13;;;;;;;;;;6689357;26;20008;-76
2024/04/23 09:43:27;;;;;;;7.57;4.60;;;;;;;;;;6680763;26;20000;-76
2024/04/23 09:46:32;;;;;;;5.47;4.40;;;;;;;;;;6688162;26;20340;-76
2024/04/23 09:49:32;;;;;;;6.22;4.65;;;;;;;;;;6668149;26;20014;-76
2024/04/23 09:52:34;;;;;;;5.57;4.93;;;;;;;;;;6675643;26;20444;-75
2024/04/23 09:55:38;;;;;;;5.05;4.55;;;;;;;;;;6706252;26;20041;-75
2024/04/23 09:58:38;;;;;;;6.30;4.75;;;;;;;;;;6709887;26;20014;-74
2024/04/23 10:01:40;;;;;;;5.10;4.47;;;;;;;;;;6707162;26;20078;-75
2024/04/23 10:04:40;;;;;;;5.32;4.50;;;;;;;;;;6704462;26;20016;-74
2024/04/23 10:07:56;;;;;;;5.93;4.80;;;;;;;;;;6708080;26;20072;-74
2024/04/23 10:10:57;;;;;;;5.65;4.57;;;;;;;;;;6705426;26;20063;-75
2024/04/23 10:13:59;;;;;;;6.70;4.40;;;;;;;;;;6686276;26;20072;-74
2024/04/23 10:17:06;;;;;;;6.03;4.97;;;;;;;;;;6696711;26;20007;-74
2024/04/23 10:20:07;;;;;;;4.82;4.22;;;;;;;;;;6683836;26;19996;-74
2024/04/23 10:23:08;;;;;;;6.07;5.10;;;;;;;;;;6710075;26;20000;-74
2024/04/23 10:26:10;;;;;;;6.67;4.80;;;;;;;;;;6710626;26;20455;-74
2024/04/23 10:29:11;;;;;;;6.07;5.05;;;;;;;;;;6711251;26;20003;-74
2024/04/23 10:32:12;;;;;;;7.30;4.97;;;;;;;;;;6705949;26;20010;-74
2024/04/23 10:35:16;;;;;;;6.18;4.80;;;;;;;;;;6683020;26;20000;-74
2024/04/23 10:38:19;;;;;;;6.13;4.65;;;;;;;;;;6689668;26;20348;-78
2024/04/23 10:41:21;;;;;;;5.18;4.57;;;;;;;;;;6687122;26;20032;-77
2024/04/23 10:44:21;;;;;;;;;;;;;;;;;;6692107;26;20034;-78
2024/04/23 10:47:21;;;;;;;4.47;4.03;;;;;;;;;;6687427;26;20370;-79
2024/04/23 10:50:26;;;;;;;5.67;4.63;;;;;;;;;;6683141;26;20007;-79
2024/04/23 10:53:29;;;;;;;5.40;4.45;;;;;;;;;;6689485;26;20011;-78
2024/04/23 10:56:30;;;;;;;7.57;4.85;;;;;;;;;;6676773;26;20026;-78
2024/04/23 10:59:30;;;;;;;6.03;4.97;;;;;;;;;;6691585;26;19993;-75
2024/04/23 11:02:36;;;;;;;6.57;5.20;;;;;;;;;;6670067;26;20390;-75
2024/04/23 11:05:43;;;;;;;6.38;5.32;;;;;;;;;;6691104;26;20084;-75
2024/04/23 11:08:49;;;;;;;6.60;5.20;;;;;;;;;;6685807;26;20008;-75
2024/04/23 11:11:53;;;;;;;7.40;5.47;;;;;;;;;;6681522;26;20000;-75
2024/04/23 11:14:53;;;;;;;6.03;5.43;;;;;;;;;;6680888;26;20004;-75
2024/04/23 11:18:01;;;;;;;5.50;4.80;;;;;;;;;;6680709;26;20074;-74
2024/04/23 11:21:02;;;;;;;7.32;5.78;;;;;;;;;;6679786;26;20330;-74
2024/04/23 11:24:05;;;;;;;6.53;5.47;;;;;;;;;;6687707;26;20014;-74
2024/04/23 11:27:06;;;;;;;6.93;5.30;;;;;;;;;;6684280;26;20325;-75
2024/04/23 11:30:12;;;;;;;7.13;5.03;;;;;;;;;;6686483;26;19996;-75
2024/04/23 11:33:15;;;;;;;7.45;5.40;;;;;;;;;;6682807;26;20226;-75
2024/04/23 11:36:23;;;;;;;7.03;6.22;;;;;;;;;;6690321;26;20000;-76
2024/04/23 11:39:27;;;;;;;7.28;6.13;;;;;;;;;;6685175;26;19996;-76
2024/04/23 11:42:28;;;;;;;6.43;5.75;;;;;;;;;;6689693;26;20119;-76
2024/04/23 11:45:28;;;;;;;9.30;5.95;;;;;;;;;;6682908;26;20000;-76
2024/04/23 11:48:29;;;;;;;6.00;5.07;;;;;;;;;;6679333;26;20017;-76
2024/04/23 11:51:29;;;;;;;5.88;5.00;;;;;;;;;;6673844;26;20000;-76
2024/04/23 11:54:30;;;;;;;5.70;5.00;;;;;;;;;;6680351;26;20015;-76
2024/04/23 11:57:30;;;;;;;5.87;5.00;;;;;;;;;;6679984;26;20001;-76
2024/04/23 12:00:30;;;;;;;5.10;4.53;;;;;;;;;;6677759;26;20000;-77
2024/04/23 12:03:31;;;;;;;5.77;5.17;;;;;;;;;;6676222;26;20000;-75
2024/04/23 12:06:32;;;;;;;5.68;5.18;;;;;;;;;;6675218;26;20335;-76
2024/04/23 12:09:32;;;;;;;5.37;4.77;;;;;;;;;;6684550;26;20000;-77
2024/04/23 12:12:36;;;;;;;5.50;4.87;;;;;;;;;;6684849;26;20007;-78
2024/04/23 12:15:36;;;;;;;6.30;5.10;;;;;;;;;;6688628;26;20364;-77
2024/04/23 12:18:39;;;;;;;6.20;5.60;;;;;;;;;;6685760;26;20012;-76
2024/04/23 12:21:39;;;;;;;6.93;5.25;;;;;;;;;;6682045;26;20459;-76
2024/04/23 12:24:39;;;;;;;6.00;4.83;;;;;;;;;;6693547;26;20044;-77
2024/04/23 12:27:44;;;;;;;6.90;5.43;;;;;;;;;;6695648;26;20039;-76
2024/04/23 12:30:44;;;;;;;5.45;4.95;;;;;;;;;;6682269;26;20004;-77
2024/04/23 12:33:45;;;;;;;6.13;4.87;;;;;;;;;;6683964;26;20464;-76
2024/04/23 12:36:52;;;;;;;5.67;4.77;;;;;;;;;;6686112;26;20509;-76
2024/04/23 12:39:52;;;;;;;5.68;5.07;;;;;;;;;;6688768;26;20018;-76
2024/04/23 12:42:54;;;;;;;6.43;5.13;;;;;;;;;;6689187;26;20469;-74
2024/04/23 12:45:54;;;;;;;5.20;4.60;;;;;;;;;;6694890;26;20061;-74
2024/04/23 12:48:55;;;;;;;6.17;4.87;;;;;;;;;;6684061;26;20004;-74
2024/04/23 12:51:55;;;;;;;5.00;4.50;;;;;;;;;;6691949;26;20007;-74
2024/04/23 12:54:55;;;;;;;5.40;4.70;;;;;;;;;;6681446;26;20137;-75
2024/04/23 12:57:57;;;;;;;4.93;4.40;;;;;;;;;;6685838;26;20437;-74
2024/04/23 13:00:57;;;;;;;5.07;4.45;;;;;;;;;;6725614;26;19999;-74
2024/04/23 13:03:57;;;;;;;5.40;4.73;;;;;;;;;;6725176;26;20010;-75
2024/04/23 13:06:58;;;;;;;5.70;5.03;;;;;;;;;;6700872;26;20000;-75
2024/04/23 13:09:58;;;;;;;6.30;4.78;;;;;;;;;;6704077;26;20008;-74
2024/04/23 13:12:58;;;;;;;6.57;5.03;;;;;;;;;;6697095;26;20004;-74
2024/04/23 13:16:00;;;;;;;5.43;4.90;;;;;;;;;;6708455;26;20010;-75
2024/04/23 13:19:00;;;;;;;4.45;4.03;;;;;;;;;;6715608;26;19997;-75
2024/04/23 13:22:01;;;;;;;5.37;4.47;;;;;;;;;;6693600;26;20003;-74
2024/04/23 13:25:02;;;;;;;7.13;5.65;;;;;;;;;;6652019;26;20354;-74
2024/04/23 13:28:03;;;;;;;7.13;6.18;;;;;;;;;;6683194;26;20004;-74
2024/04/23 13:31:03;;;;;;;5.63;4.70;;;;;;;;;;6681635;26;20081;-75
2024/04/23 13:34:03;;;;;;;5.30;4.80;;;;;;;;;;6687033;26;19996;-74
2024/04/23 13:37:04;;;;;;;5.40;4.37;;;;;;;;;;6716358;26;20019;-75
2024/04/23 13:40:06;;;;;;;4.80;4.22;;;;;;;;;;6682301;26;20008;-75
2024/04/23 13:43:07;;;;;;;5.75;4.75;;;;;;;;;;6691597;26;20065;-74
2024/04/23 13:46:09;;;;;;;5.38;4.72;;;;;;;;;;6679198;26;20024;-74
2024/04/23 13:49:09;;;;;;;4.82;4.18;;;;;;;;;;6683598;26;20000;-74
2024/04/23 13:52:09;;;;;;;4.63;4.00;;;;;;;;;;6704962;26;20459;-76
2024/04/23 13:55:10;;;;;;;4.57;3.97;;;;;;;;;;6694721;26;20011;-76
2024/04/23 13:58:10;;;;;;;4.38;3.97;;;;;;;;;;6681972;26;20011;-76
2024/04/23 14:01:10;;;;;;;4.30;3.90;;;;;;;;;;6682001;26;20032;-76
2024/04/23 14:04:11;;;;;;;5.70;4.33;;;;;;;;;;6683910;26;19992;-76
2024/04/23 14:07:11;;;;;;;4.60;4.20;;;;;;;;;;6678958;26;19992;-76
2024/04/23 14:10:11;;;;;;;4.70;4.17;;;;;;;;;;6684975;26;20017;-76
2024/04/23 14:13:12;;;;;;;8.30;5.63;;;;;;;;;;6674876;26;20064;-76
2024/04/23 14:16:12;;;;;;;6.30;4.90;;;;;;;;;;6663853;26;20442;-76
2024/04/23 14:19:13;;;;;;;5.63;4.53;;;;;;;;;;6661775;26;19996;-76
2024/04/23 14:22:13;;;;;;;5.67;4.10;;;;;;;;;;6682097;26;20528;-76
2024/04/23 14:25:14;;;;;;;4.88;4.38;;;;;;;;;;6679726;26;20484;-76
2024/04/23 14:28:14;;;;;;;4.45;4.05;;;;;;;;;;6681261;26;19993;-76
2024/04/23 14:31:14;;;;;;;5.37;4.10;;;;;;;;;;6689193;26;20456;-76
2024/04/23 14:34:17;;;;;;;5.80;3.97;;;;;;;;;;6689110;26;20525;-76
2024/04/23 14:37:17;;;;;;;5.03;3.97;;;;;;;;;;6685794;26;20081;-76
2024/04/23 14:40:17;;;;;;;5.30;4.30;;;;;;;;;;6686280;26;20322;-76
2024/04/23 14:43:18;;;;;;;6.03;4.03;;;;;;;;;;6678953;26;19996;-76
2024/04/23 14:46:19;;;;;;;5.83;4.57;;;;;;;;;;6683014;26;20430;-75
2024/04/23 14:49:19;;;;;;;6.00;4.50;;;;;;;;;;6698565;26;20465;-76
2024/04/23 14:52:19;;;;;;;5.27;4.17;;;;;;;;;;6677879;26;20015;-76
2024/04/23 14:55:19;;;;;;;6.73;5.20;;;;;;;;;;6678294;26;20014;-76
2024/04/23 14:58:19;;;;;;;5.87;4.73;;;;;;;;;;6679697;26;19993;-77
2024/04/23 15:01:20;;;;;;;5.60;4.63;;;;;;;;;;6684966;26;20547;-76
2024/04/23 15:04:21;;;;;;;6.00;5.00;;;;;;;;;;6679794;26;19996;-76
2024/04/23 15:07:23;;;;;;;;;;;;;;;;;;6677589;26;20003;-77
2024/04/23 15:10:25;;;;;;;4.35;3.33;;;;;;;;;;6683740;26;19941;-76
2024/04/23 15:13:25;;;;;;;6.28;4.18;;;;;;;;;;6681188;26;20004;-76
2024/04/23 15:16:25;;;;;;;5.07;4.57;;;;;;;;;;6681643;26;19996;-77
2024/04/23 15:19:26;;;;;;;5.17;4.30;;;;;;;;;;6679679;26;19997;-76
2024/04/23 15:22:26;;;;;;;5.23;4.13;;;;;;;;;;6682507;26;20012;-77
2024/04/23 15:25:27;;;;;;;5.80;4.60;;;;;;;;;;6679437;26;20441;-77
2024/04/23 15:28:31;;;;;;;5.45;4.28;;;;;;;;;;6684347;26;20411;-76
2024/04/23 15:31:32;;;;;;;5.03;3.95;;;;;;;;;;6685125;26;19996;-77
2024/04/23 15:34:32;;;;;;;4.47;4.03;;;;;;;;;;6703222;26;20337;-77
2024/04/23 15:37:32;;;;;;;6.80;3.67;;;;;;;;;;6683608;26;20015;-76
2024/04/23 15:40:33;;;;;;;5.17;4.47;;;;;;;;;;6683479;26;19988;-76
2024/04/23 15:43:33;;;;;;;4.70;4.17;;;;;;;;;;6679932;26;20073;-77
2024/04/23 15:46:33;;;;;;;4.13;3.73;;;;;;;;;;6676417;26;20460;-76
2024/04/23 15:49:33;;;;;;;4.27;3.83;;;;;;;;;;6683440;26;20000;-77
2024/04/23 15:52:33;;;;;;;4.50;3.70;;;;;;;;;;6687874;26;20525;-76
2024/04/23 15:55:34;;;;;;;4.43;3.90;;;;;;;;;;6680573;26;20521;-76
2024/04/23 15:58:34;;;;;;;4.23;3.83;;;;;;;;;;6669587;26;20498;-76
2024/04/23 16:01:36;;;;;;;4.63;4.13;;;;;;;;;;6649956;26;20433;-76
2024/04/23 16:04:36;;;;;;;4.97;4.07;;;;;;;;;;6680708;26;20008;-77
2024/04/23 16:07:37;;;;;;;4.60;3.67;;;;;;;;;;6683147;26;20015;-77
2024/04/23 16:10:37;;;;;;;4.20;3.77;;;;;;;;;;6678760;26;20014;-75
2024/04/23 16:13:38;;;;;;;4.33;3.93;;;;;;;;;;6677357;26;20024;-75
2024/04/23 16:16:38;;;;;;;4.40;4.00;;;;;;;;;;6691070;26;20010;-75
2024/04/23 16:19:38;;;;;;;5.27;4.00;;;;;;;;;;6682340;26;20468;-75
2024/04/23 16:22:38;;;;;;;4.17;3.77;;;;;;;;;;6680965;26;20453;-75
2024/04/23 16:25:39;;;;;;;4.33;3.90;;;;;;;;;;6680629;26;20454;-75
2024/04/23 16:28:39;;;;;;;4.30;3.90;;;;;;;;;;6696981;26;20501;-75
2024/04/23 16:31:39;;;;;;;4.80;4.17;;;;;;;;;;6681681;26;20329;-75
2024/04/23 16:34:40;;;;;;;5.53;3.80;;;;;;;;;;6684161;26;20539;-75
2024/04/23 16:37:40;;;;;;;4.53;4.13;;;;;;;;;;6677222;26;19997;-75
2024/04/23 16:40:40;;;;;;;5.60;4.50;;;;;;;;;;6681179;26;19992;-76
2024/04/23 16:43:41;;;;;;;5.33;4.63;;;;;;;;;;6677608;26;20011;-75
2024/04/23 16:46:41;;;;;;;6.43;4.90;;;;;;;;;;6679842;26;20092;-75
2024/04/23 16:49:41;;;;;;;5.10;4.60;;;;;;;;;;6676923;26;20070;-75
2024/04/23 16:52:41;;;;;;;5.60;4.20;;;;;;;;;;6701124;26;20043;-75
2024/04/23 16:55:42;;;;;;;5.00;4.27;;;;;;;;;;6680792;26;20007;-75
2024/04/23 16:58:42;;;;;;;5.57;4.73;;;;;;;;;;6687555;26;20032;-75
2024/04/23 17:01:42;;;;;;;4.40;3.90;;;;;;;;;;6683344;26;20467;-75
2024/04/23 17:04:43;;;;;;;3.83;3.53;;;;;;;;;;6693360;26;20396;-75
2024/04/23 17:07:43;;;;;;;4.00;3.60;;;;;;;;;;6692361;26;20494;-75
2024/04/23 17:10:44;;;;;;;4.37;3.97;;;;;;;;;;6682187;26;19992;-75
2024/04/23 17:13:45;;;;;;;4.57;3.58;;;;;;;;;;6680158;26;19996;-76
2024/04/23 17:16:45;;;;;;;4.50;3.63;;;;;;;;;;6680116;26;20014;-78
2024/04/23 17:19:45;;;;;;;4.30;3.90;;;;;;;;;;6688711;26;19997;-76
2024/04/23 17:22:45;;;;;;;5.80;3.87;;;;;;;;;;6698084;26;19995;-73
2024/04/23 17:25:46;;;;;;;4.93;3.63;;;;;;;;;;6681926;26;20074;-75
2024/04/23 17:28:47;;;;;;;4.47;3.80;;;;;;;;;;6696388;26;20008;-75
2024/04/23 17:31:47;;;;;;;;;;;;;;;;;;6679625;26;19996;-75
2024/04/23 17:34:47;;;;;;;4.15;3.50;;;;;;;;;;6689033;26;19929;-75
2024/04/23 17:37:49;;;;;;;5.90;4.63;;;;;;;;;;6686091;26;19993;-74
2024/04/23 17:40:52;;;;;;;4.63;4.18;;;;;;;;;;6684898;26;20011;-75
2024/04/23 17:43:53;;;;;;;4.95;4.05;;;;;;;;;;6680254;26;20011;-75
2024/04/23 17:46:53;;;;;;;4.23;3.83;;;;;;;;;;6684303;26;19996;-75
2024/04/23 17:49:56;;;;;;;5.50;4.07;;;;;;;;;;6683585;26;20059;-75
2024/04/23 17:52:56;;;;;;;4.13;3.53;;;;;;;;;;6686034;26;19992;-75
2024/04/23 17:56:00;;;;;;;3.90;3.50;;;;;;;;;;6648976;26;20599;-77
2024/04/23 17:59:00;;;;;;;3.90;3.50;;;;;;;;;;6681881;26;20000;-77
2024/04/23 18:02:01;;;;;;;4.60;3.80;;;;;;;;;;6684329;26;20463;-76
2024/04/23 18:05:01;;;;;;;4.33;3.50;;;;;;;;;;6682690;26;20011;-74
2024/04/23 18:08:01;;;;;;;4.47;3.70;;;;;;;;;;6683240;26;20003;-74
2024/04/23 18:11:02;;;;;;;4.03;3.30;;;;;;;;;;6701618;26;19991;-75
2024/04/23 18:14:04;;;;;;;4.37;3.23;;;;;;;;;;6705401;26;20040;-75